sensor_id;sensor_type;location;lat;lon;timestamp;P1;durP1;ratioP1;P2;durP2;ratioP2
51216;SDS011;37283;49.760;8.648;2023-04-09T06:03:52;23.23;;;17.95;;
51216;SDS011;37283;49.760;8.648;2023-04-09T06:06:23;24.10;;;18.63;;
51216;SDS011;37283;49.760;8.648;2023-04-09T06:08:49;22.30;;;17.15;;
51216;SDS011;37283;49.760;8.648;2023-04-09T06:11:16;22.67;;;18.05;;
51216;SDS011;37283;49.760;8.648;2023-04-09T06:13:43;22.48;;;18.40;;
51216;SDS011;37283;49.760;8.648;2023-04-09T06:16:09;22.40;;;18.65;;
51216;SDS011;37283;49.760;8.648;2023-04-09T06:18:35;22.20;;;17.42;;
51216;SDS011;37283;49.760;8.648;2023-04-09T06:21:02;21.25;;;17.27;;
51216;SDS011;37283;49.760;8.648;2023-04-09T06:23:29;19.08;;;16.95;;
51216;SDS011;37283;49.760;8.648;2023-04-09T06:25:56;21.33;;;17.52;;
51216;SDS011;37283;49.760;8.648;2023-04-09T06:28:23;20.98;;;16.83;;
51216;SDS011;37283;49.760;8.648;2023-04-09T06:30:49;21.42;;;17.55;;
51216;SDS011;37283;49.760;8.648;2023-04-09T06:33:16;21.15;;;17.20;;
51216;SDS011;37283;49.760;8.648;2023-04-09T06:35:42;20.00;;;16.67;;
51216;SDS011;37283;49.760;8.648;2023-04-09T06:38:08;20.70;;;17.30;;
51216;SDS011;37283;49.760;8.648;2023-04-09T06:40:36;21.48;;;16.73;;
51216;SDS011;37283;49.760;8.648;2023-04-09T06:43:06;18.65;;;16.27;;
51216;SDS011;37283;49.760;8.648;2023-04-09T06:45:50;18.88;;;16.58;;
51216;SDS011;37283;49.760;8.648;2023-04-09T06:48:17;18.80;;;16.55;;
51216;SDS011;37283;49.760;8.648;2023-04-09T06:50:43;19.25;;;16.35;;
51216;SDS011;37283;49.760;8.648;2023-04-09T06:53:10;18.63;;;16.17;;
51216;SDS011;37283;49.760;8.648;2023-04-09T06:55:36;19.15;;;16.15;;
51216;SDS011;37283;49.760;8.648;2023-04-09T06:58:03;18.13;;;15.80;;
51216;SDS011;37283;49.760;8.648;2023-04-09T07:00:30;17.48;;;15.23;;
51216;SDS011;37283;49.760;8.648;2023-04-09T07:02:56;17.40;;;14.95;;
51216;SDS011;37283;49.760;8.648;2023-04-09T07:05:23;17.20;;;14.80;;
51216;SDS011;37283;49.760;8.648;2023-04-09T07:07:50;18.08;;;15.40;;
51216;SDS011;37283;49.760;8.648;2023-04-09T07:10:16;18.58;;;14.77;;
51216;SDS011;37283;49.760;8.648;2023-04-09T07:12:43;17.65;;;15.30;;
51216;SDS011;37283;49.760;8.648;2023-04-09T07:15:09;18.25;;;15.55;;
51216;SDS011;37283;49.760;8.648;2023-04-09T07:17:35;19.48;;;16.48;;
51216;SDS011;37283;49.760;8.648;2023-04-09T07:20:02;18.35;;;16.08;;
51216;SDS011;37283;49.760;8.648;2023-04-09T07:22:29;18.15;;;15.48;;
51216;SDS011;37283;49.760;8.648;2023-04-09T07:24:56;18.58;;;15.88;;
51216;SDS011;37283;49.760;8.648;2023-04-09T07:27:23;19.25;;;16.00;;
51216;SDS011;37283;49.760;8.648;2023-04-09T07:29:53;18.30;;;15.85;;
51216;SDS011;37283;49.760;8.648;2023-04-09T07:32:21;19.02;;;14.90;;
51216;SDS011;37283;49.760;8.648;2023-04-09T07:34:47;19.30;;;15.27;;
51216;SDS011;37283;49.760;8.648;2023-04-09T07:37:16;16.42;;;14.65;;
51216;SDS011;37283;49.760;8.648;2023-04-09T07:39:43;16.25;;;13.95;;
51216;SDS011;37283;49.760;8.648;2023-04-09T07:42:09;14.80;;;13.18;;
51216;SDS011;37283;49.760;8.648;2023-04-09T07:44:36;16.98;;;12.95;;
51216;SDS011;37283;49.760;8.648;2023-04-09T07:47:04;14.70;;;12.00;;
51216;SDS011;37283;49.760;8.648;2023-04-09T07:49:32;14.88;;;12.95;;
51216;SDS011;37283;49.760;8.648;2023-04-09T07:51:58;15.93;;;13.65;;
51216;SDS011;37283;49.760;8.648;2023-04-09T07:54:25;17.10;;;14.18;;
51216;SDS011;37283;49.760;8.648;2023-04-09T07:56:51;16.83;;;14.18;;
51216;SDS011;37283;49.760;8.648;2023-04-09T07:59:18;17.17;;;14.00;;
51216;SDS011;37283;49.760;8.648;2023-04-09T08:01:44;17.15;;;14.68;;
51216;SDS011;37283;49.760;8.648;2023-04-09T08:04:11;17.60;;;14.27;;
51216;SDS011;37283;49.760;8.648;2023-04-09T08:06:38;17.42;;;14.45;;
51216;SDS011;37283;49.760;8.648;2023-04-09T08:09:05;17.55;;;15.18;;
51216;SDS011;37283;49.760;8.648;2023-04-09T08:11:32;16.48;;;14.18;;
51216;SDS011;37283;49.760;8.648;2023-04-09T08:13:58;16.92;;;15.13;;
51216;SDS011;37283;49.760;8.648;2023-04-09T08:16:29;16.38;;;14.60;;
51216;SDS011;37283;49.760;8.648;2023-04-09T08:18:56;17.60;;;15.30;;
51216;SDS011;37283;49.760;8.648;2023-04-09T08:21:22;16.52;;;14.75;;
51216;SDS011;37283;49.760;8.648;2023-04-09T08:23:49;19.50;;;15.23;;
51216;SDS011;37283;49.760;8.648;2023-04-09T08:26:16;17.75;;;15.60;;
51216;SDS011;37283;49.760;8.648;2023-04-09T08:28:43;18.10;;;15.73;;
51216;SDS011;37283;49.760;8.648;2023-04-09T08:31:09;17.50;;;14.82;;
51216;SDS011;37283;49.760;8.648;2023-04-09T08:33:36;17.55;;;15.60;;
51216;SDS011;37283;49.760;8.648;2023-04-09T08:36:06;17.10;;;15.30;;
51216;SDS011;37283;49.760;8.648;2023-04-09T08:38:33;15.23;;;13.00;;
51216;SDS011;37283;49.760;8.648;2023-04-09T08:41:00;14.05;;;12.55;;
51216;SDS011;37283;49.760;8.648;2023-04-09T08:43:26;13.45;;;12.05;;
51216;SDS011;37283;49.760;8.648;2023-04-09T08:46:14;14.68;;;12.93;;
51216;SDS011;37283;49.760;8.648;2023-04-09T08:48:44;16.40;;;13.88;;
51216;SDS011;37283;49.760;8.648;2023-04-09T08:51:12;17.92;;;14.68;;
51216;SDS011;37283;49.760;8.648;2023-04-09T08:53:41;15.60;;;13.32;;
51216;SDS011;37283;49.760;8.648;2023-04-09T08:56:10;15.77;;;12.20;;
51216;SDS011;37283;49.760;8.648;2023-04-09T08:58:36;13.82;;;12.32;;
51216;SDS011;37283;49.760;8.648;2023-04-09T09:01:14;11.63;;;10.43;;
51216;SDS011;37283;49.760;8.648;2023-04-09T09:03:53;12.05;;;10.27;;
51216;SDS011;37283;49.760;8.648;2023-04-09T09:06:25;11.30;;;10.00;;
51216;SDS011;37283;49.760;8.648;2023-04-09T09:09:13;13.27;;;10.60;;
51216;SDS011;37283;49.760;8.648;2023-04-09T09:11:45;11.55;;;10.10;;
51216;SDS011;37283;49.760;8.648;2023-04-09T09:14:14;10.65;;;9.55;;
51216;SDS011;37283;49.760;8.648;2023-04-09T09:16:43;11.38;;;10.23;;
51216;SDS011;37283;49.760;8.648;2023-04-09T09:21:55;11.23;;;10.00;;
51216;SDS011;37283;49.760;8.648;2023-04-09T09:24:29;11.00;;;9.52;;
51216;SDS011;37283;49.760;8.648;2023-04-09T09:26:57;11.90;;;10.50;;
51216;SDS011;37283;49.760;8.648;2023-04-09T09:29:24;9.27;;;8.15;;
51216;SDS011;37283;49.760;8.648;2023-04-09T09:31:51;9.85;;;8.52;;
51216;SDS011;37283;49.760;8.648;2023-04-09T09:34:19;9.30;;;7.50;;
51216;SDS011;37283;49.760;8.648;2023-04-09T09:36:47;8.82;;;7.53;;
51216;SDS011;37283;49.760;8.648;2023-04-09T09:39:14;8.93;;;7.53;;
51216;SDS011;37283;49.760;8.648;2023-04-09T09:41:45;9.10;;;8.10;;
51216;SDS011;37283;49.760;8.648;2023-04-09T09:44:29;9.02;;;8.07;;
51216;SDS011;37283;49.760;8.648;2023-04-09T09:46:56;10.57;;;9.48;;
51216;SDS011;37283;49.760;8.648;2023-04-09T09:49:24;10.50;;;9.25;;
51216;SDS011;37283;49.760;8.648;2023-04-09T09:51:50;9.57;;;8.55;;
51216;SDS011;37283;49.760;8.648;2023-04-09T09:54:17;9.57;;;8.48;;
51216;SDS011;37283;49.760;8.648;2023-04-09T09:56:47;10.45;;;8.65;;
51216;SDS011;37283;49.760;8.648;2023-04-09T09:59:19;10.20;;;9.02;;
51216;SDS011;37283;49.760;8.648;2023-04-09T10:01:53;9.85;;;8.80;;
51216;SDS011;37283;49.760;8.648;2023-04-09T10:04:22;11.85;;;8.98;;
51216;SDS011;37283;49.760;8.648;2023-04-09T10:06:49;9.57;;;8.57;;
51216;SDS011;37283;49.760;8.648;2023-04-09T10:09:18;8.95;;;8.05;;
51216;SDS011;37283;49.760;8.648;2023-04-09T10:11:46;8.60;;;7.70;;
51216;SDS011;37283;49.760;8.648;2023-04-09T10:14:13;8.85;;;7.57;;
51216;SDS011;37283;49.760;8.648;2023-04-09T10:16:42;7.80;;;6.72;;
51216;SDS011;37283;49.760;8.648;2023-04-09T10:19:08;7.13;;;6.43;;
51216;SDS011;37283;49.760;8.648;2023-04-09T10:24:10;7.00;;;5.90;;
51216;SDS011;37283;49.760;8.648;2023-04-09T10:26:40;6.40;;;5.65;;
51216;SDS011;37283;49.760;8.648;2023-04-09T10:29:08;7.75;;;5.55;;
51216;SDS011;37283;49.760;8.648;2023-04-09T10:31:52;7.15;;;6.45;;
51216;SDS011;37283;49.760;8.648;2023-04-09T10:34:20;8.73;;;7.55;;
51216;SDS011;37283;49.760;8.648;2023-04-09T10:36:49;9.45;;;8.38;;
51216;SDS011;37283;49.760;8.648;2023-04-09T10:39:18;8.40;;;7.47;;
51216;SDS011;37283;49.760;8.648;2023-04-09T10:41:45;8.35;;;7.55;;
51216;SDS011;37283;49.760;8.648;2023-04-09T10:44:29;9.02;;;8.13;;
51216;SDS011;37283;49.760;8.648;2023-04-09T10:49:34;19.48;;;8.15;;
51216;SDS011;37283;49.760;8.648;2023-04-09T10:52:05;8.40;;;7.43;;
51216;SDS011;37283;49.760;8.648;2023-04-09T10:54:36;7.93;;;7.13;;
51216;SDS011;37283;49.760;8.648;2023-04-09T10:59:37;8.35;;;6.78;;
51216;SDS011;37283;49.760;8.648;2023-04-09T11:02:07;7.10;;;6.40;;
51216;SDS011;37283;49.760;8.648;2023-04-09T11:04:50;7.30;;;6.33;;
51216;SDS011;37283;49.760;8.648;2023-04-09T11:07:43;6.95;;;6.25;;
51216;SDS011;37283;49.760;8.648;2023-04-09T11:10:12;7.03;;;5.78;;
51216;SDS011;37283;49.760;8.648;2023-04-09T11:12:38;6.00;;;5.40;;
51216;SDS011;37283;49.760;8.648;2023-04-09T11:15:05;6.05;;;5.45;;
51216;SDS011;37283;49.760;8.648;2023-04-09T11:17:34;6.75;;;5.97;;
51216;SDS011;37283;49.760;8.648;2023-04-09T11:20:01;5.97;;;5.38;;
51216;SDS011;37283;49.760;8.648;2023-04-09T11:22:28;6.15;;;5.22;;
51216;SDS011;37283;49.760;8.648;2023-04-09T11:24:55;6.53;;;5.50;;
51216;SDS011;37283;49.760;8.648;2023-04-09T11:27:22;6.75;;;5.60;;
51216;SDS011;37283;49.760;8.648;2023-04-09T11:29:53;6.50;;;5.85;;
51216;SDS011;37283;49.760;8.648;2023-04-09T11:32:20;6.25;;;5.45;;
51216;SDS011;37283;49.760;8.648;2023-04-09T11:34:47;6.13;;;5.53;;
51216;SDS011;37283;49.760;8.648;2023-04-09T11:37:14;8.07;;;5.55;;
51216;SDS011;37283;49.760;8.648;2023-04-09T11:39:45;6.50;;;5.78;;
51216;SDS011;37283;49.760;8.648;2023-04-09T11:42:14;6.00;;;5.40;;
51216;SDS011;37283;49.760;8.648;2023-04-09T11:47:07;6.25;;;5.50;;
51216;SDS011;37283;49.760;8.648;2023-04-09T11:49:34;7.38;;;5.82;;
51216;SDS011;37283;49.760;8.648;2023-04-09T11:52:01;6.28;;;5.55;;
51216;SDS011;37283;49.760;8.648;2023-04-09T11:54:32;6.80;;;6.10;;
51216;SDS011;37283;49.760;8.648;2023-04-09T11:56:59;6.03;;;5.40;;
51216;SDS011;37283;49.760;8.648;2023-04-09T11:59:26;6.13;;;5.53;;
51216;SDS011;37283;49.760;8.648;2023-04-09T12:01:53;6.20;;;5.60;;
51216;SDS011;37283;49.760;8.648;2023-04-09T12:04:23;6.13;;;5.43;;
51216;SDS011;37283;49.760;8.648;2023-04-09T12:06:49;6.57;;;5.90;;
51216;SDS011;37283;49.760;8.648;2023-04-09T12:09:16;7.93;;;5.55;;
51216;SDS011;37283;49.760;8.648;2023-04-09T12:11:43;6.30;;;5.65;;
51216;SDS011;37283;49.760;8.648;2023-04-09T12:14:12;8.15;;;6.03;;
51216;SDS011;37283;49.760;8.648;2023-04-09T12:16:41;6.03;;;5.43;;
51216;SDS011;37283;49.760;8.648;2023-04-09T12:19:11;6.13;;;5.53;;
51216;SDS011;37283;49.760;8.648;2023-04-09T12:21:56;5.85;;;5.18;;
51216;SDS011;37283;49.760;8.648;2023-04-09T12:24:23;6.13;;;5.53;;
51216;SDS011;37283;49.760;8.648;2023-04-09T12:26:51;6.78;;;5.55;;
51216;SDS011;37283;49.760;8.648;2023-04-09T12:29:18;6.03;;;5.43;;
51216;SDS011;37283;49.760;8.648;2023-04-09T12:31:46;5.82;;;4.75;;
51216;SDS011;37283;49.760;8.648;2023-04-09T12:34:12;5.60;;;5.00;;
51216;SDS011;37283;49.760;8.648;2023-04-09T12:36:39;5.90;;;5.30;;
51216;SDS011;37283;49.760;8.648;2023-04-09T12:39:09;5.80;;;5.20;;
51216;SDS011;37283;49.760;8.648;2023-04-09T12:41:35;6.20;;;5.60;;
51216;SDS011;37283;49.760;8.648;2023-04-09T12:44:02;6.18;;;5.57;;
51216;SDS011;37283;49.760;8.648;2023-04-09T12:46:28;6.30;;;5.53;;
51216;SDS011;37283;49.760;8.648;2023-04-09T12:48:57;6.40;;;5.53;;
51216;SDS011;37283;49.760;8.648;2023-04-09T12:51:23;5.80;;;5.13;;
51216;SDS011;37283;49.760;8.648;2023-04-09T12:53:50;5.50;;;4.82;;
51216;SDS011;37283;49.760;8.648;2023-04-09T12:56:17;5.40;;;4.68;;
51216;SDS011;37283;49.760;8.648;2023-04-09T12:58:44;5.40;;;4.82;;
51216;SDS011;37283;49.760;8.648;2023-04-09T13:01:10;5.40;;;4.90;;
51216;SDS011;37283;49.760;8.648;2023-04-09T13:03:37;5.25;;;4.75;;
51216;SDS011;37283;49.760;8.648;2023-04-09T13:06:06;5.30;;;4.80;;
51216;SDS011;37283;49.760;8.648;2023-04-09T13:08:33;5.15;;;4.60;;
51216;SDS011;37283;49.760;8.648;2023-04-09T13:10:59;5.25;;;4.75;;
51216;SDS011;37283;49.760;8.648;2023-04-09T13:13:26;5.53;;;4.90;;
51216;SDS011;37283;49.760;8.648;2023-04-09T13:15:53;6.20;;;5.47;;
51216;SDS011;37283;49.760;8.648;2023-04-09T13:18:20;6.63;;;5.30;;
51216;SDS011;37283;49.760;8.648;2023-04-09T13:20:46;6.40;;;5.20;;
51216;SDS011;37283;49.760;8.648;2023-04-09T13:23:13;6.95;;;5.22;;
51216;SDS011;37283;49.760;8.648;2023-04-09T13:25:39;5.32;;;4.80;;
51216;SDS011;37283;49.760;8.648;2023-04-09T13:28:06;5.18;;;4.65;;
51216;SDS011;37283;49.760;8.648;2023-04-09T13:30:32;5.10;;;4.50;;
51216;SDS011;37283;49.760;8.648;2023-04-09T13:32:59;5.68;;;4.65;;
51216;SDS011;37283;49.760;8.648;2023-04-09T13:35:25;5.28;;;4.43;;
51216;SDS011;37283;49.760;8.648;2023-04-09T13:37:52;4.35;;;3.65;;
51216;SDS011;37283;49.760;8.648;2023-04-09T13:40:18;4.38;;;3.65;;
51216;SDS011;37283;49.760;8.648;2023-04-09T13:42:45;3.85;;;3.47;;
51216;SDS011;37283;49.760;8.648;2023-04-09T13:45:12;3.72;;;3.25;;
51216;SDS011;37283;49.760;8.648;2023-04-09T13:47:38;3.95;;;3.55;;
51216;SDS011;37283;49.760;8.648;2023-04-09T13:50:05;4.18;;;3.78;;
51216;SDS011;37283;49.760;8.648;2023-04-09T13:52:32;5.13;;;3.60;;
51216;SDS011;37283;49.760;8.648;2023-04-09T13:54:59;3.95;;;3.20;;
51216;SDS011;37283;49.760;8.648;2023-04-09T13:57:25;3.55;;;3.25;;
51216;SDS011;37283;49.760;8.648;2023-04-09T13:59:52;3.80;;;3.17;;
51216;SDS011;37283;49.760;8.648;2023-04-09T14:02:18;3.70;;;3.20;;
51216;SDS011;37283;49.760;8.648;2023-04-09T14:04:45;3.40;;;3.00;;
51216;SDS011;37283;49.760;8.648;2023-04-09T14:07:12;4.95;;;3.55;;
51216;SDS011;37283;49.760;8.648;2023-04-09T14:09:39;5.13;;;3.08;;
51216;SDS011;37283;49.760;8.648;2023-04-09T14:12:05;3.83;;;3.30;;
51216;SDS011;37283;49.760;8.648;2023-04-09T14:14:32;4.50;;;3.53;;
51216;SDS011;37283;49.760;8.648;2023-04-09T14:16:58;3.70;;;3.30;;
51216;SDS011;37283;49.760;8.648;2023-04-09T14:19:25;3.88;;;3.10;;
51216;SDS011;37283;49.760;8.648;2023-04-09T14:21:51;4.03;;;3.63;;
51216;SDS011;37283;49.760;8.648;2023-04-09T14:24:20;3.20;;;2.85;;
51216;SDS011;37283;49.760;8.648;2023-04-09T14:26:48;3.55;;;3.10;;
51216;SDS011;37283;49.760;8.648;2023-04-09T14:29:16;3.70;;;3.23;;
51216;SDS011;37283;49.760;8.648;2023-04-09T14:31:42;3.97;;;3.40;;
51216;SDS011;37283;49.760;8.648;2023-04-09T14:34:09;4.07;;;3.67;;
51216;SDS011;37283;49.760;8.648;2023-04-09T14:36:36;3.70;;;3.10;;
51216;SDS011;37283;49.760;8.648;2023-04-09T14:39:02;3.50;;;3.20;;
51216;SDS011;37283;49.760;8.648;2023-04-09T14:41:29;4.18;;;3.10;;
51216;SDS011;37283;49.760;8.648;2023-04-09T14:43:55;3.85;;;3.22;;
51216;SDS011;37283;49.760;8.648;2023-04-09T14:46:22;3.45;;;3.10;;
51216;SDS011;37283;49.760;8.648;2023-04-09T14:48:48;3.15;;;2.80;;
51216;SDS011;37283;49.760;8.648;2023-04-09T14:51:15;3.47;;;2.83;;
51216;SDS011;37283;49.760;8.648;2023-04-09T14:53:42;3.47;;;2.92;;
51216;SDS011;37283;49.760;8.648;2023-04-09T14:56:08;3.08;;;2.78;;
51216;SDS011;37283;49.760;8.648;2023-04-09T14:58:35;3.80;;;3.13;;
51216;SDS011;37283;49.760;8.648;2023-04-09T15:01:01;4.18;;;3.35;;
51216;SDS011;37283;49.760;8.648;2023-04-09T15:03:29;4.07;;;3.50;;
51216;SDS011;37283;49.760;8.648;2023-04-09T15:05:56;3.20;;;2.90;;
51216;SDS011;37283;49.760;8.648;2023-04-09T15:08:22;3.72;;;3.13;;
51216;SDS011;37283;49.760;8.648;2023-04-09T15:10:49;3.67;;;3.20;;
51216;SDS011;37283;49.760;8.648;2023-04-09T15:13:16;3.25;;;2.83;;
51216;SDS011;37283;49.760;8.648;2023-04-09T15:15:42;4.03;;;2.78;;
51216;SDS011;37283;49.760;8.648;2023-04-09T15:18:09;3.42;;;2.92;;
51216;SDS011;37283;49.760;8.648;2023-04-09T15:20:37;3.30;;;3.00;;
51216;SDS011;37283;49.760;8.648;2023-04-09T15:23:04;3.30;;;3.00;;
51216;SDS011;37283;49.760;8.648;2023-04-09T15:25:30;3.58;;;2.55;;
51216;SDS011;37283;49.760;8.648;2023-04-09T15:27:57;7.00;;;3.10;;
51216;SDS011;37283;49.760;8.648;2023-04-09T15:30:24;3.95;;;3.05;;
51216;SDS011;37283;49.760;8.648;2023-04-09T15:32:51;2.88;;;2.67;;
51216;SDS011;37283;49.760;8.648;2023-04-09T15:35:18;3.20;;;2.75;;
51216;SDS011;37283;49.760;8.648;2023-04-09T15:37:50;2.97;;;2.67;;
51216;SDS011;37283;49.760;8.648;2023-04-09T15:40:17;3.00;;;2.70;;
51216;SDS011;37283;49.760;8.648;2023-04-09T15:42:43;3.85;;;3.10;;
51216;SDS011;37283;49.760;8.648;2023-04-09T15:45:10;2.85;;;2.60;;
51216;SDS011;37283;49.760;8.648;2023-04-09T15:47:37;3.08;;;2.78;;
51216;SDS011;37283;49.760;8.648;2023-04-09T15:50:04;3.10;;;2.80;;
51216;SDS011;37283;49.760;8.648;2023-04-09T15:52:31;2.67;;;2.38;;
51216;SDS011;37283;49.760;8.648;2023-04-09T15:54:57;2.80;;;2.50;;
51216;SDS011;37283;49.760;8.648;2023-04-09T15:57:24;3.00;;;2.70;;
51216;SDS011;37283;49.760;8.648;2023-04-09T15:59:51;2.80;;;2.50;;
51216;SDS011;37283;49.760;8.648;2023-04-09T16:02:18;2.70;;;2.30;;
51216;SDS011;37283;49.760;8.648;2023-04-09T16:04:44;2.58;;;2.00;;
51216;SDS011;37283;49.760;8.648;2023-04-09T16:07:12;3.00;;;2.45;;
51216;SDS011;37283;49.760;8.648;2023-04-09T16:09:41;2.45;;;2.25;;
51216;SDS011;37283;49.760;8.648;2023-04-09T16:12:07;3.53;;;2.38;;
51216;SDS011;37283;49.760;8.648;2023-04-09T16:14:34;2.42;;;2.22;;
51216;SDS011;37283;49.760;8.648;2023-04-09T16:17:01;2.78;;;2.47;;
51216;SDS011;37283;49.760;8.648;2023-04-09T16:19:28;2.47;;;2.20;;
51216;SDS011;37283;49.760;8.648;2023-04-09T16:21:55;2.63;;;2.20;;
51216;SDS011;37283;49.760;8.648;2023-04-09T16:24:22;3.33;;;2.63;;
51216;SDS011;37283;49.760;8.648;2023-04-09T16:26:49;2.67;;;2.40;;
51216;SDS011;37283;49.760;8.648;2023-04-09T16:29:15;2.42;;;2.22;;
51216;SDS011;37283;49.760;8.648;2023-04-09T16:31:42;2.70;;;2.30;;
51216;SDS011;37283;49.760;8.648;2023-04-09T16:34:09;2.50;;;2.00;;
51216;SDS011;37283;49.760;8.648;2023-04-09T16:36:36;2.00;;;1.80;;
51216;SDS011;37283;49.760;8.648;2023-04-09T16:39:03;2.60;;;2.30;;
51216;SDS011;37283;49.760;8.648;2023-04-09T16:41:30;2.92;;;2.40;;
51216;SDS011;37283;49.760;8.648;2023-04-09T16:43:57;2.67;;;2.40;;
51216;SDS011;37283;49.760;8.648;2023-04-09T16:46:23;2.90;;;2.38;;
51216;SDS011;37283;49.760;8.648;2023-04-09T16:48:50;2.78;;;2.33;;
51216;SDS011;37283;49.760;8.648;2023-04-09T16:51:17;2.47;;;2.28;;
51216;SDS011;37283;49.760;8.648;2023-04-09T16:53:43;3.05;;;2.35;;
51216;SDS011;37283;49.760;8.648;2023-04-09T16:56:10;2.65;;;2.38;;
51216;SDS011;37283;49.760;8.648;2023-04-09T16:58:36;3.20;;;2.33;;
51216;SDS011;37283;49.760;8.648;2023-04-09T17:01:03;2.58;;;2.30;;
51216;SDS011;37283;49.760;8.648;2023-04-09T17:03:29;2.88;;;2.10;;
51216;SDS011;37283;49.760;8.648;2023-04-09T17:05:56;2.22;;;2.03;;
51216;SDS011;37283;49.760;8.648;2023-04-09T17:08:23;2.30;;;2.10;;
51216;SDS011;37283;49.760;8.648;2023-04-09T17:10:50;3.10;;;2.25;;
51216;SDS011;37283;49.760;8.648;2023-04-09T17:13:17;2.75;;;1.95;;
51216;SDS011;37283;49.760;8.648;2023-04-09T17:15:43;2.60;;;2.05;;
51216;SDS011;37283;49.760;8.648;2023-04-09T17:18:09;3.00;;;2.30;;
51216;SDS011;37283;49.760;8.648;2023-04-09T17:20:36;3.00;;;2.22;;
51216;SDS011;37283;49.760;8.648;2023-04-09T17:23:03;2.25;;;2.03;;
51216;SDS011;37283;49.760;8.648;2023-04-09T17:25:29;3.15;;;1.90;;
51216;SDS011;37283;49.760;8.648;2023-04-09T17:27:56;3.42;;;2.53;;
51216;SDS011;37283;49.760;8.648;2023-04-09T17:30:23;3.60;;;2.90;;
51216;SDS011;37283;49.760;8.648;2023-04-09T17:32:49;2.70;;;2.50;;
51216;SDS011;37283;49.760;8.648;2023-04-09T17:35:16;2.95;;;2.53;;
51216;SDS011;37283;49.760;8.648;2023-04-09T17:37:42;3.38;;;2.88;;
51216;SDS011;37283;49.760;8.648;2023-04-09T17:40:09;3.10;;;2.65;;
51216;SDS011;37283;49.760;8.648;2023-04-09T17:42:37;3.28;;;2.70;;
51216;SDS011;37283;49.760;8.648;2023-04-09T17:45:04;3.35;;;3.00;;
51216;SDS011;37283;49.760;8.648;2023-04-09T17:47:31;3.55;;;2.50;;
51216;SDS011;37283;49.760;8.648;2023-04-09T17:49:58;3.15;;;2.85;;
51216;SDS011;37283;49.760;8.648;2023-04-09T17:52:25;3.22;;;2.88;;
51216;SDS011;37283;49.760;8.648;2023-04-09T17:54:51;5.60;;;4.20;;
51216;SDS011;37283;49.760;8.648;2023-04-09T17:57:18;4.75;;;3.92;;
51216;SDS011;37283;49.760;8.648;2023-04-09T17:59:44;3.10;;;2.80;;
51216;SDS011;37283;49.760;8.648;2023-04-09T18:02:11;2.72;;;2.53;;
51216;SDS011;37283;49.760;8.648;2023-04-09T18:04:38;3.15;;;2.65;;
51216;SDS011;37283;49.760;8.648;2023-04-09T18:07:04;3.22;;;2.92;;
51216;SDS011;37283;49.760;8.648;2023-04-09T18:09:31;4.05;;;2.70;;
51216;SDS011;37283;49.760;8.648;2023-04-09T18:11:57;2.80;;;2.50;;
51216;SDS011;37283;49.760;8.648;2023-04-09T18:14:26;3.07;;;2.53;;
51216;SDS011;37283;49.760;8.648;2023-04-09T18:16:52;3.33;;;2.70;;
51216;SDS011;37283;49.760;8.648;2023-04-09T18:19:19;4.55;;;2.70;;
51216;SDS011;37283;49.760;8.648;2023-04-09T18:21:46;4.45;;;3.15;;
51216;SDS011;37283;49.760;8.648;2023-04-09T18:24:12;2.97;;;2.60;;
51216;SDS011;37283;49.760;8.648;2023-04-09T18:26:39;3.05;;;2.67;;
51216;SDS011;37283;49.760;8.648;2023-04-09T18:29:06;3.65;;;2.95;;
51216;SDS011;37283;49.760;8.648;2023-04-09T18:31:33;3.17;;;2.88;;
51216;SDS011;37283;49.760;8.648;2023-04-09T18:34:00;2.88;;;2.58;;
51216;SDS011;37283;49.760;8.648;2023-04-09T18:36:26;3.20;;;2.70;;
51216;SDS011;37283;49.760;8.648;2023-04-09T18:38:54;3.22;;;2.88;;
51216;SDS011;37283;49.760;8.648;2023-04-09T18:41:24;3.30;;;2.80;;
51216;SDS011;37283;49.760;8.648;2023-04-09T18:43:51;3.17;;;2.70;;
51216;SDS011;37283;49.760;8.648;2023-04-09T18:46:18;3.55;;;2.97;;
51216;SDS011;37283;49.760;8.648;2023-04-09T18:48:45;3.55;;;3.10;;
51216;SDS011;37283;49.760;8.648;2023-04-09T18:53:40;3.65;;;2.95;;
51216;SDS011;37283;49.760;8.648;2023-04-09T18:56:07;3.47;;;3.03;;
51216;SDS011;37283;49.760;8.648;2023-04-09T18:58:34;3.95;;;3.15;;
51216;SDS011;37283;49.760;8.648;2023-04-09T19:01:08;3.00;;;2.67;;
51216;SDS011;37283;49.760;8.648;2023-04-09T19:03:36;3.13;;;2.83;;
51216;SDS011;37283;49.760;8.648;2023-04-09T19:06:13;3.55;;;3.10;;
51216;SDS011;37283;49.760;8.648;2023-04-09T19:08:40;3.67;;;3.20;;
51216;SDS011;37283;49.760;8.648;2023-04-09T19:11:07;3.42;;;3.03;;
51216;SDS011;37283;49.760;8.648;2023-04-09T19:13:34;3.35;;;3.05;;
51216;SDS011;37283;49.760;8.648;2023-04-09T19:16:02;3.97;;;3.58;;
51216;SDS011;37283;49.760;8.648;2023-04-09T19:18:29;4.32;;;3.30;;
51216;SDS011;37283;49.760;8.648;2023-04-09T19:20:56;5.05;;;3.40;;
51216;SDS011;37283;49.760;8.648;2023-04-09T19:23:22;3.97;;;3.17;;
51216;SDS011;37283;49.760;8.648;2023-04-09T19:25:52;3.58;;;3.03;;
51216;SDS011;37283;49.760;8.648;2023-04-09T19:28:20;5.50;;;4.30;;
51216;SDS011;37283;49.760;8.648;2023-04-09T19:30:47;4.95;;;3.63;;
51216;SDS011;37283;49.760;8.648;2023-04-09T19:33:18;4.13;;;3.50;;
51216;SDS011;37283;49.760;8.648;2023-04-09T19:35:49;4.30;;;3.53;;
51216;SDS011;37283;49.760;8.648;2023-04-09T19:38:17;4.53;;;3.53;;
51216;SDS011;37283;49.760;8.648;2023-04-09T19:40:44;4.10;;;3.70;;
51216;SDS011;37283;49.760;8.648;2023-04-09T19:43:11;4.05;;;3.58;;
51216;SDS011;37283;49.760;8.648;2023-04-09T19:45:38;4.18;;;3.47;;
51216;SDS011;37283;49.760;8.648;2023-04-09T19:48:05;5.28;;;3.80;;
51216;SDS011;37283;49.760;8.648;2023-04-09T19:50:36;4.75;;;3.88;;
51216;SDS011;37283;49.760;8.648;2023-04-09T19:53:06;5.40;;;4.30;;
51216;SDS011;37283;49.760;8.648;2023-04-09T19:55:33;4.40;;;3.65;;
51216;SDS011;37283;49.760;8.648;2023-04-09T19:58:00;4.78;;;3.78;;
51216;SDS011;37283;49.760;8.648;2023-04-09T20:00:31;4.93;;;4.13;;
51216;SDS011;37283;49.760;8.648;2023-04-09T20:02:58;6.18;;;3.97;;
51216;SDS011;37283;49.760;8.648;2023-04-09T20:05:26;4.60;;;4.03;;
51216;SDS011;37283;49.760;8.648;2023-04-09T20:10:38;4.47;;;4.00;;
51216;SDS011;37283;49.760;8.648;2023-04-09T20:13:06;5.22;;;4.45;;
51216;SDS011;37283;49.760;8.648;2023-04-09T20:15:34;5.03;;;4.53;;
51216;SDS011;37283;49.760;8.648;2023-04-09T20:18:01;4.78;;;4.28;;
51216;SDS011;37283;49.760;8.648;2023-04-09T20:20:37;4.65;;;4.15;;
51216;SDS011;37283;49.760;8.648;2023-04-09T20:23:04;5.05;;;4.55;;
51216;SDS011;37283;49.760;8.648;2023-04-09T20:25:31;5.00;;;4.50;;
51216;SDS011;37283;49.760;8.648;2023-04-09T20:28:03;5.35;;;4.80;;
51216;SDS011;37283;49.760;8.648;2023-04-09T20:30:30;5.35;;;3.97;;
51216;SDS011;37283;49.760;8.648;2023-04-09T20:32:58;4.70;;;4.20;;
51216;SDS011;37283;49.760;8.648;2023-04-09T20:35:25;5.60;;;4.80;;
51216;SDS011;37283;49.760;8.648;2023-04-09T20:37:52;5.18;;;4.60;;
51216;SDS011;37283;49.760;8.648;2023-04-09T20:40:20;5.30;;;4.72;;
51216;SDS011;37283;49.760;8.648;2023-04-09T20:45:17;5.97;;;4.43;;
51216;SDS011;37283;49.760;8.648;2023-04-09T20:47:45;7.03;;;4.93;;
51216;SDS011;37283;49.760;8.648;2023-04-09T20:50:12;5.13;;;4.63;;
51216;SDS011;37283;49.760;8.648;2023-04-09T20:52:39;5.63;;;4.85;;
51216;SDS011;37283;49.760;8.648;2023-04-09T20:55:05;6.70;;;5.03;;
51216;SDS011;37283;49.760;8.648;2023-04-09T20:57:33;5.45;;;4.75;;
51216;SDS011;37283;49.760;8.648;2023-04-09T20:59:59;5.70;;;5.00;;
51216;SDS011;37283;49.760;8.648;2023-04-09T21:02:29;5.47;;;4.78;;
51216;SDS011;37283;49.760;8.648;2023-04-09T21:04:58;5.15;;;4.40;;
51216;SDS011;37283;49.760;8.648;2023-04-09T21:07:44;6.22;;;5.35;;